Time;durP1;ratioP1;P1;durP2;ratioP2;P2;SDS_P1;SDS_P2;PMS_P1;PMS_P2;Temp;Humidity;BMP_temperature;BMP_pressure;BME280_temperature;BME280_humidity;BME280_pressure;Samples;Min_cycle;Max_cycle;Signal;HPM_P1;HPM_P2
2021/06/12 00:00:22;;;;;;;5.68;3.58;;;19.00;99.90;;;;;;5099040;28;20111;-85
2021/06/12 00:02:48;;;;;;;4.85;3.05;;;19.00;99.90;;;;;;5108468;28;20051;-85
2021/06/12 00:05:15;;;;;;;4.25;2.95;;;19.10;99.90;;;;;;5107369;28;20027;-85
2021/06/12 00:07:41;;;;;;;5.07;3.28;;;19.10;99.90;;;;;;5107004;28;20051;-85
2021/06/12 00:10:14;;;;;;;5.80;3.60;;;19.10;99.90;;;;;;5107266;28;20080;-86
2021/06/12 00:12:42;;;;;;;4.40;3.42;;;19.10;99.90;;;;;;5109061;28;20047;-84
2021/06/12 00:15:09;;;;;;;5.10;4.28;;;19.10;99.90;;;;;;5107858;28;20471;-85
2021/06/12 00:17:37;;;;;;;6.68;4.35;;;19.10;99.90;;;;;;5107801;28;20031;-86
2021/06/12 00:20:09;;;;;;;5.18;4.05;;;19.00;99.90;;;;;;5109765;28;20024;-86
2021/06/12 00:22:35;;;;;;;5.40;4.05;;;19.00;99.90;;;;;;5114528;28;20027;-86
2021/06/12 00:25:05;;;;;;;6.82;4.82;;;19.00;99.90;;;;;;5113144;28;20038;-86
2021/06/12 00:27:34;;;;;;;5.65;4.32;;;18.90;99.90;;;;;;5114847;28;20016;-86
2021/06/12 00:30:04;;;;;;;6.18;4.75;;;18.90;99.90;;;;;;5136649;27;20038;-85
2021/06/12 00:32:31;;;;;;;7.70;5.53;;;18.80;99.90;;;;;;5130434;27;20036;-84
2021/06/12 00:34:58;;;;;;;8.68;4.97;;;18.70;99.90;;;;;;5114963;28;20053;-85
2021/06/12 00:37:24;;;;;;;7.13;4.75;;;18.70;99.90;;;;;;5112992;28;20043;-84
2021/06/12 00:39:50;;;;;;;6.53;5.30;;;18.70;99.90;;;;;;5113858;28;20452;-86
2021/06/12 00:42:15;;;;;;;6.55;5.30;;;18.60;99.90;;;;;;5113844;28;20047;-86
2021/06/12 00:44:42;;;;;;;7.47;5.57;;;18.60;99.90;;;;;;5112332;28;20498;-85
2021/06/12 00:47:07;;;;;;;7.93;5.50;;;18.60;99.90;;;;;;5127046;28;20047;-84
2021/06/12 00:49:33;;;;;;;6.78;4.90;;;18.60;99.90;;;;;;5120877;28;20016;-85
2021/06/12 00:51:59;;;;;;;7.90;5.30;;;18.60;99.90;;;;;;5113751;28;20023;-85
2021/06/12 00:54:26;;;;;;;6.63;4.82;;;18.60;99.90;;;;;;5112299;28;20027;-86
2021/06/12 00:56:57;;;;;;;6.82;4.72;;;18.60;99.90;;;;;;5113402;28;20023;-85
2021/06/12 00:59:23;;;;;;;6.43;4.45;;;18.60;99.90;;;;;;5112388;28;20506;-85
2021/06/12 01:01:50;;;;;;;7.20;4.72;;;18.50;99.90;;;;;;5112696;28;20066;-85
2021/06/12 01:04:17;;;;;;;6.28;4.63;;;18.50;99.90;;;;;;5112145;28;20024;-85
2021/06/12 01:06:50;;;;;;;7.18;4.55;;;18.50;99.90;;;;;;5113835;28;20092;-84
2021/06/12 01:09:21;;;;;;;6.53;4.25;;;18.50;99.90;;;;;;5112179;28;20078;-85
2021/06/12 01:12:17;;;;;;;5.70;3.55;;;18.50;99.90;;;;;;5112315;28;20081;-85
2021/06/12 01:14:53;;;;;;;6.53;5.10;;;18.50;99.90;;;;;;5112322;28;20045;-86
2021/06/12 01:17:33;;;;;;;6.22;4.45;;;18.50;99.90;;;;;;5113037;28;20391;-85
2021/06/12 01:20:37;;;;;;;5.85;4.05;;;18.50;99.90;;;;;;5112085;28;20795;-85
2021/06/12 01:23:12;;;;;;;6.85;5.10;;;18.40;99.90;;;;;;5072801;28;20073;-86
2021/06/12 01:25:37;;;;;;;9.43;6.50;;;18.40;99.90;;;;;;5113419;28;20028;-85
2021/06/12 01:28:31;;;;;;;8.35;6.30;;;18.40;99.90;;;;;;5111799;28;20376;-85
2021/06/12 01:30:57;;;;;;;9.30;6.35;;;18.30;99.90;;;;;;5114329;28;20039;-85
2021/06/12 01:33:23;;;;;;;7.68;5.07;;;18.20;99.90;;;;;;5115496;28;20104;-85
2021/06/12 01:36:02;;;;;;;7.78;4.68;;;18.20;99.90;;;;;;5115500;28;20036;-85
2021/06/12 01:38:30;;;;;;;7.28;5.28;;;18.20;99.90;;;;;;5116045;27;20369;-86
2021/06/12 01:41:07;;;;;;;7.25;5.53;;;18.20;99.90;;;;;;5115435;28;20027;-86
2021/06/12 01:43:35;;;;;;;7.07;5.30;;;18.20;99.90;;;;;;5116300;28;20020;-85
2021/06/12 01:46:01;;;;;;;7.68;5.07;;;18.20;99.90;;;;;;5115352;28;20528;-85
2021/06/12 01:48:28;;;;;;;5.75;4.30;;;18.20;99.90;;;;;;5116220;28;20020;-85
2021/06/12 01:50:56;;;;;;;7.03;4.97;;;18.20;99.90;;;;;;5114894;28;20107;-86
2021/06/12 01:53:30;;;;;;;7.80;5.35;;;18.30;99.90;;;;;;5115045;28;20019;-85
2021/06/12 01:56:01;;;;;;;5.72;4.15;;;18.30;99.90;;;;;;5114629;28;20043;-84
2021/06/12 01:58:29;;;;;;;9.13;5.70;;;18.40;99.90;;;;;;5115889;28;20035;-85
2021/06/12 02:00:55;;;;;;;8.18;5.40;;;18.40;99.90;;;;;;5115912;28;20487;-86
2021/06/12 02:03:22;;;;;;;9.93;6.13;;;18.40;99.90;;;;;;5115041;28;20058;-85
2021/06/12 02:05:49;;;;;;;8.63;6.28;;;18.40;99.90;;;;;;5115718;28;20034;-85
2021/06/12 02:08:18;;;;;;;8.23;5.75;;;18.40;99.90;;;;;;5115963;28;20067;-84
2021/06/12 02:10:48;;;;;;;8.50;4.90;;;18.40;99.90;;;;;;5114714;28;20063;-85
2021/06/12 02:13:19;;;;;;;7.68;5.00;;;18.40;99.90;;;;;;5115937;27;20433;-86
2021/06/12 02:15:50;;;;;;;9.50;6.55;;;18.40;99.90;;;;;;5122846;28;20024;-84
2021/06/12 02:18:18;;;;;;;9.70;6.93;;;18.40;99.90;;;;;;5138133;28;20031;-85
2021/06/12 02:20:48;;;;;;;9.30;5.85;;;18.40;99.90;;;;;;5140202;27;20008;-84
2021/06/12 02:23:14;;;;;;;9.98;6.82;;;18.30;99.90;;;;;;5133100;28;20466;-85
2021/06/12 02:25:39;;;;;;;12.00;7.68;;;18.40;99.90;;;;;;5116843;28;20066;-84
2021/06/12 02:28:10;;;;;;;7.82;5.22;;;18.40;99.90;;;;;;5115590;28;20047;-85
2021/06/12 02:30:44;;;;;;;9.00;5.82;;;18.30;99.90;;;;;;5116300;28;20087;-86
2021/06/12 02:33:14;;;;;;;9.20;5.55;;;18.40;99.90;;;;;;5097411;28;20016;-85
2021/06/12 02:35:40;;;;;;;8.23;4.75;;;18.40;99.90;;;;;;5115739;28;20023;-85
2021/06/12 02:38:06;;;;;;;9.38;5.18;;;18.40;99.90;;;;;;5114732;28;20050;-86
2021/06/12 02:40:32;;;;;;;10.40;5.55;;;18.40;99.90;;;;;;5115226;28;20044;-86
2021/06/12 02:42:58;;;;;;;10.43;6.13;;;18.40;99.90;;;;;;5114315;28;20104;-86
2021/06/12 02:45:25;;;;;;;10.85;6.80;;;18.40;99.90;;;;;;5115394;28;20015;-85
2021/06/12 02:48:01;;;;;;;9.93;5.70;;;18.30;99.90;;;;;;5114016;28;20032;-85
2021/06/12 02:50:30;;;;;;;12.07;6.10;;;18.30;99.90;;;;;;5123126;28;20011;-84
2021/06/12 02:53:03;;;;;;;12.07;6.50;;;18.30;99.90;;;;;;5128853;27;20020;-85
2021/06/12 02:55:31;;;;;;;11.20;6.10;;;18.30;99.90;;;;;;5114217;28;20034;-86
2021/06/12 02:58:00;;;;;;;9.60;5.63;;;18.30;99.90;;;;;;5115613;28;20123;-86
2021/06/12 03:00:27;;;;;;;12.27;6.15;;;18.30;99.90;;;;;;5115155;28;20054;-86
2021/06/12 03:02:54;;;;;;;9.23;5.13;;;18.30;99.90;;;;;;5113174;28;20031;-85
2021/06/12 03:05:24;;;;;;;10.80;7.47;;;18.30;99.90;;;;;;5115410;28;20030;-86
2021/06/12 03:07:54;;;;;;;9.10;5.45;;;18.30;99.90;;;;;;5114922;28;20052;-86
2021/06/12 03:10:22;;;;;;;8.48;5.22;;;18.30;99.90;;;;;;5115072;28;20043;-86
2021/06/12 03:12:49;;;;;;;10.60;6.07;;;18.30;99.90;;;;;;5113079;28;20023;-85
2021/06/12 03:15:16;;;;;;;9.57;5.70;;;18.30;99.90;;;;;;5113803;28;20047;-86
2021/06/12 03:17:47;;;;;;;9.43;6.13;;;18.30;99.90;;;;;;5114935;28;20034;-85
2021/06/12 03:20:16;;;;;;;7.57;5.13;;;18.40;99.90;;;;;;5113596;28;20596;-85
2021/06/12 03:22:45;;;;;;;9.98;5.55;;;18.40;99.90;;;;;;5113216;28;20032;-85
2021/06/12 03:25:19;;;;;;;11.02;6.53;;;18.40;99.90;;;;;;5114816;28;20016;-85
2021/06/12 03:27:45;;;;;;;8.07;5.22;;;18.40;99.90;;;;;;5113434;28;20108;-85
2021/06/12 03:30:13;;;;;;;10.50;5.13;;;18.30;99.90;;;;;;5114661;28;20023;-85
2021/06/12 03:32:40;;;;;;;7.25;4.50;;;18.30;99.90;;;;;;5114949;28;20024;-86
2021/06/12 03:35:09;;;;;;;6.93;4.03;;;18.40;99.90;;;;;;5097767;28;20028;-85
2021/06/12 03:37:36;;;;;;;7.90;4.78;;;18.40;99.90;;;;;;5113581;28;20027;-87
2021/06/12 03:40:04;;;;;;;6.50;3.85;;;18.40;99.90;;;;;;5112524;28;20031;-85
2021/06/12 03:42:30;;;;;;;6.05;4.05;;;18.40;99.90;;;;;;5114436;28;20016;-86
2021/06/12 03:44:58;;;;;;;7.28;4.45;;;18.40;99.90;;;;;;5114542;28;20024;-85
2021/06/12 03:47:25;;;;;;;9.35;4.93;;;18.50;99.90;;;;;;5112956;28;20016;-86
2021/06/12 03:49:52;;;;;;;8.13;4.22;;;18.50;99.90;;;;;;5114734;28;20027;-86
2021/06/12 03:52:23;;;;;;;6.97;3.95;;;18.50;99.90;;;;;;5113938;28;20111;-86
2021/06/12 03:54:50;;;;;;;6.32;4.10;;;18.50;99.90;;;;;;5107992;28;20020;-85
2021/06/12 03:57:15;;;;;;;8.73;4.82;;;18.50;99.90;;;;;;5112692;28;20024;-87
2021/06/12 03:59:44;;;;;;;10.60;4.70;;;18.60;99.90;;;;;;5112913;28;20471;-84
2021/06/12 04:02:13;;;;;;;8.18;4.43;;;18.50;99.90;;;;;;5112716;28;20032;-85
2021/06/12 04:04:38;;;;;;;7.70;4.80;;;18.50;99.90;;;;;;5113109;28;20086;-86
2021/06/12 04:07:05;;;;;;;6.93;3.97;;;18.50;99.90;;;;;;5124674;28;20031;-84
2021/06/12 04:09:32;;;;;;;11.57;5.63;;;18.50;99.90;;;;;;5138173;28;20033;-85
2021/06/12 04:11:57;;;;;;;8.70;4.10;;;18.50;99.90;;;;;;5127559;28;20050;-86
2021/06/12 04:14:23;;;;;;;8.90;5.35;;;18.50;99.90;;;;;;5114389;28;20028;-85
2021/06/12 04:16:49;;;;;;;6.80;4.10;;;18.50;99.90;;;;;;5115288;28;20028;-86
2021/06/12 04:19:14;;;;;;;9.50;5.53;;;18.60;99.90;;;;;;5113258;28;20028;-84
2021/06/12 04:21:40;;;;;;;7.82;4.82;;;18.50;99.90;;;;;;5114105;28;20435;-85
2021/06/12 04:24:06;;;;;;;10.75;5.85;;;18.50;99.90;;;;;;5112705;28;20084;-86
2021/06/12 04:26:32;;;;;;;9.55;5.68;;;18.50;99.90;;;;;;5113534;28;20111;-85
2021/06/12 04:28:59;;;;;;;10.15;6.03;;;18.50;99.90;;;;;;5112515;28;20055;-87
2021/06/12 04:31:29;;;;;;;11.52;6.25;;;18.50;99.90;;;;;;5112237;28;20023;-85
2021/06/12 04:33:56;;;;;;;8.45;4.90;;;18.50;99.90;;;;;;5113021;28;20026;-85
2021/06/12 04:36:24;;;;;;;8.57;5.70;;;18.60;99.90;;;;;;5114379;28;20035;-86
2021/06/12 04:38:49;;;;;;;10.55;6.65;;;18.60;99.90;;;;;;5113770;28;20032;-86
2021/06/12 04:41:15;;;;;;;9.38;6.25;;;18.50;99.90;;;;;;5113940;28;20019;-86
2021/06/12 04:43:41;;;;;;;9.73;5.97;;;18.50;99.90;;;;;;5113763;28;20026;-84
2021/06/12 04:46:09;;;;;;;9.00;5.35;;;18.50;99.90;;;;;;5112254;28;20441;-86
2021/06/12 04:48:38;;;;;;;8.48;6.50;;;18.60;99.90;;;;;;5112586;28;20035;-86
2021/06/12 04:51:07;;;;;;;11.02;5.85;;;18.60;99.90;;;;;;5112093;28;20026;-87
2021/06/12 04:53:35;;;;;;;9.98;6.90;;;18.70;99.90;;;;;;5112691;28;20046;-85
2021/06/12 04:56:01;;;;;;;9.02;6.00;;;18.70;99.90;;;;;;5125917;28;20027;-87
2021/06/12 04:58:27;;;;;;;9.00;5.60;;;18.70;99.90;;;;;;5115314;28;20034;-85
2021/06/12 05:01:27;;;;;;;12.10;7.07;;;18.70;99.90;;;;;;5111869;28;20027;-86
2021/06/12 05:03:59;;;;;;;9.75;5.78;;;18.70;99.90;;;;;;5112230;28;20020;-86
2021/06/12 05:06:25;;;;;;;10.48;6.60;;;18.70;99.90;;;;;;5115722;28;20030;-86
2021/06/12 05:08:51;;;;;;;11.13;6.60;;;18.70;99.90;;;;;;5115737;28;20052;-86
2021/06/12 05:11:17;;;;;;;9.50;5.95;;;18.70;99.90;;;;;;5115841;28;20020;-86
2021/06/12 05:13:42;;;;;;;9.52;6.45;;;18.70;99.90;;;;;;5115982;28;20032;-87
2021/06/12 05:16:09;;;;;;;10.02;6.57;;;18.70;99.90;;;;;;5116884;28;20028;-86
2021/06/12 05:18:43;;;;;;;8.90;6.05;;;18.80;99.90;;;;;;5116179;28;20039;-85
2021/06/12 05:21:13;;;;;;;8.68;5.72;;;18.80;99.90;;;;;;5099393;28;20500;-87
2021/06/12 05:23:42;;;;;;;11.07;6.68;;;18.80;99.90;;;;;;5116442;28;20027;-85
2021/06/12 05:26:08;;;;;;;10.15;7.03;;;18.80;99.90;;;;;;5115517;28;20031;-85
2021/06/12 05:28:45;;;;;;;;;;;;;;;;;;;;;
2021/06/12 05:31:18;;;;;;;10.07;7.68;;;18.90;99.90;;;;;;5100947;28;20028;-87
2021/06/12 05:33:44;;;;;;;10.60;8.00;;;18.90;99.90;;;;;;5116725;28;20495;-85
2021/06/12 05:36:10;;;;;;;13.70;8.85;;;18.90;99.90;;;;;;5114808;28;20028;-85
2021/06/12 05:38:35;;;;;;;9.40;7.10;;;19.00;99.90;;;;;;5115538;28;20019;-84
2021/06/12 05:41:02;;;;;;;11.43;7.05;;;18.90;99.90;;;;;;5115161;28;20044;-85
2021/06/12 05:43:27;;;;;;;11.48;7.65;;;19.00;99.90;;;;;;5114698;28;20771;-85
2021/06/12 05:45:53;;;;;;;9.18;6.32;;;19.10;99.90;;;;;;5114126;28;20035;-85
2021/06/12 05:48:19;;;;;;;9.75;7.22;;;19.10;99.90;;;;;;5114750;28;20106;-86
2021/06/12 05:50:46;;;;;;;9.63;7.38;;;19.10;99.90;;;;;;5113627;28;20454;-86
2021/06/12 05:53:13;;;;;;;9.77;6.88;;;19.20;99.90;;;;;;5116007;28;20019;-86
2021/06/12 05:55:39;;;;;;;9.23;6.18;;;19.20;99.90;;;;;;5122937;28;20019;-86
2021/06/12 05:58:05;;;;;;;10.70;5.95;;;19.30;99.90;;;;;;5139925;28;20012;-85
2021/06/12 06:00:33;;;;;;;9.98;5.72;;;19.30;99.90;;;;;;5137334;27;20016;-85
2021/06/12 06:02:59;;;;;;;8.48;5.85;;;19.40;99.90;;;;;;5116570;28;20039;-85
2021/06/12 06:05:29;;;;;;;10.70;6.97;;;19.40;99.90;;;;;;5115334;28;20015;-86
2021/06/12 06:07:55;;;;;;;9.25;6.03;;;19.50;99.90;;;;;;5116481;28;20051;-85
2021/06/12 06:10:22;;;;;;;11.85;6.85;;;19.50;99.90;;;;;;5115184;28;20019;-85
2021/06/12 06:12:48;;;;;;;8.95;5.80;;;19.60;99.90;;;;;;5114409;28;20039;-85
2021/06/12 06:15:16;;;;;;;11.82;7.13;;;19.60;99.90;;;;;;5114533;28;20080;-85
2021/06/12 06:17:43;;;;;;;8.93;6.05;;;19.60;99.90;;;;;;5116359;28;20080;-85
2021/06/12 06:20:11;;;;;;;8.10;5.55;;;19.70;99.90;;;;;;5116916;28;20020;-85
2021/06/12 06:22:38;;;;;;;8.98;5.07;;;19.90;99.90;;;;;;5116129;28;20035;-84
2021/06/12 06:25:14;;;;;;;8.73;5.30;;;19.90;99.90;;;;;;5116338;28;20016;-84
2021/06/12 06:27:40;;;;;;;8.05;4.30;;;20.00;99.90;;;;;;5115838;28;20107;-84
2021/06/12 06:30:10;;;;;;;7.80;4.85;;;20.00;99.90;;;;;;5116066;27;20544;-86
2021/06/12 06:32:39;;;;;;;5.57;3.95;;;20.00;99.90;;;;;;5114901;28;20115;-85
2021/06/12 06:35:08;;;;;;;7.95;4.03;;;20.00;99.90;;;;;;5116396;28;20030;-85
2021/06/12 06:37:33;;;;;;;9.18;4.57;;;20.20;99.90;;;;;;5113791;28;20031;-85
2021/06/12 06:39:59;;;;;;;7.25;4.88;;;20.20;99.90;;;;;;5114666;28;20504;-85
2021/06/12 06:42:36;;;;;;;7.50;4.57;;;20.20;99.90;;;;;;5114136;28;20050;-84
2021/06/12 06:45:08;;;;;;;7.13;3.90;;;20.20;99.90;;;;;;5114851;28;20034;-84
2021/06/12 06:47:36;;;;;;;8.50;4.70;;;20.20;99.90;;;;;;5113282;28;20051;-85
2021/06/12 06:50:04;;;;;;;7.65;4.28;;;20.20;99.90;;;;;;5114640;28;20106;-84
2021/06/12 06:52:30;;;;;;;7.22;4.03;;;20.30;99.90;;;;;;5116203;28;20046;-86
2021/06/12 06:54:59;;;;;;;7.47;3.95;;;20.40;99.90;;;;;;5113920;28;20031;-86
2021/06/12 06:57:25;;;;;;;6.70;4.28;;;20.50;99.90;;;;;;5115745;28;20102;-85
2021/06/12 06:59:52;;;;;;;6.43;4.45;;;20.60;99.90;;;;;;5127948;28;20463;-86
2021/06/12 07:02:18;;;;;;;5.72;2.88;;;20.60;99.90;;;;;;5117412;28;20135;-84
2021/06/12 07:04:47;;;;;;;5.88;3.35;;;20.70;99.90;;;;;;5114144;28;20479;-86
2021/06/12 07:07:17;;;;;;;7.03;3.67;;;20.90;99.90;;;;;;5113496;28;20028;-86
2021/06/12 07:09:53;;;;;;;5.20;2.90;;;21.10;99.90;;;;;;5115427;28;20023;-85
2021/06/12 07:12:24;;;;;;;5.10;3.35;;;21.20;99.90;;;;;;5113687;28;20034;-86
2021/06/12 07:14:56;;;;;;;6.15;3.53;;;21.20;99.90;;;;;;5112245;28;20024;-85
2021/06/12 07:17:28;;;;;;;5.43;2.80;;;21.20;99.90;;;;;;5111194;27;20116;-86
2021/06/12 07:19:58;;;;;;;4.22;2.40;;;21.20;99.90;;;;;;5117039;27;20032;-86
2021/06/12 07:22:30;;;;;;;4.00;2.53;;;21.30;99.90;;;;;;5121287;27;20414;-87
2021/06/12 07:25:03;;;;;;;4.07;2.10;;;21.60;99.90;;;;;;5116030;27;20024;-86
2021/06/12 07:27:31;;;;;;;5.47;2.28;;;21.90;99.90;;;;;;5109564;28;20012;-85
2021/06/12 07:30:02;;;;;;;3.95;2.08;;;22.10;99.90;;;;;;5112077;28;20027;-86
2021/06/12 07:32:32;;;;;;;3.83;2.15;;;22.10;99.90;;;;;;5108769;28;20047;-84
2021/06/12 07:35:00;;;;;;;4.78;2.30;;;22.20;99.90;;;;;;5111293;28;20032;-84
2021/06/12 07:37:29;;;;;;;5.15;2.85;;;22.20;99.80;;;;;;5116194;27;20064;-86
2021/06/12 07:40:04;;;;;;;4.25;2.03;;;22.10;99.60;;;;;;5121345;27;20023;-85
2021/06/12 07:42:42;;;;;;;5.47;2.63;;;22.20;99.60;;;;;;5114320;28;20039;-86
2021/06/12 07:45:11;;;;;;;3.85;1.83;;;22.10;98.70;;;;;;5137536;28;20057;-84
2021/06/12 07:47:57;;;;;;;3.85;2.20;;;22.00;98.70;;;;;;5136774;27;20047;-84
2021/06/12 07:50:29;;;;;;;3.03;1.80;;;22.10;98.80;;;;;;5115033;28;20024;-84
2021/06/12 07:53:10;;;;;;;3.83;1.52;;;22.20;98.80;;;;;;5112185;28;20024;-85
2021/06/12 07:55:39;;;;;;;3.53;2.10;;;22.30;99.00;;;;;;5112221;28;20027;-85
2021/06/12 07:58:08;;;;;;;3.10;1.75;;;22.40;98.60;;;;;;5112624;28;20052;-84
2021/06/12 08:00:43;;;;;;;4.13;1.83;;;22.40;98.30;;;;;;5111444;28;20021;-84
2021/06/12 08:03:14;;;;;;;3.90;1.98;;;22.50;98.20;;;;;;5096426;28;20064;-84
2021/06/12 08:05:40;;;;;;;2.70;1.90;;;22.50;98.10;;;;;;5120122;27;20019;-85
2021/06/12 08:08:06;;;;;;;3.45;1.95;;;22.40;97.60;;;;;;5120504;27;20047;-85
2021/06/12 08:10:42;;;;;;;4.80;1.85;;;22.30;97.50;;;;;;5127130;27;20114;-85
2021/06/12 08:13:08;;;;;;;4.25;1.85;;;22.30;97.40;;;;;;5105315;27;20039;-84
2021/06/12 08:15:38;;;;;;;3.03;1.70;;;22.30;97.20;;;;;;5117560;27;20119;-85
2021/06/12 08:18:08;;;;;;;2.63;1.60;;;22.30;97.00;;;;;;5111222;28;20024;-85
2021/06/12 08:20:40;;;;;;;4.07;1.70;;;22.30;96.70;;;;;;5107930;28;20035;-85
2021/06/12 08:23:09;;;;;;;4.50;1.92;;;22.40;96.50;;;;;;5114326;28;20111;-84
2021/06/12 08:25:36;;;;;;;4.75;1.70;;;22.50;96.20;;;;;;5119638;28;20024;-85
2021/06/12 08:28:05;;;;;;;3.38;1.52;;;22.70;96.10;;;;;;5126165;28;20039;-84
2021/06/12 08:30:35;;;;;;;3.72;1.45;;;22.90;95.60;;;;;;5116561;28;20039;-85
2021/06/12 08:33:09;;;;;;;5.22;1.70;;;23.00;95.20;;;;;;5094607;28;20387;-84
2021/06/12 08:35:39;;;;;;;2.40;1.27;;;23.10;95.30;;;;;;5112429;28;20110;-85
2021/06/12 08:38:08;;;;;;;3.28;1.50;;;23.20;95.40;;;;;;5112359;28;20035;-84
2021/06/12 08:40:34;;;;;;;4.40;1.95;;;23.30;95.30;;;;;;5118144;28;20034;-84
2021/06/12 08:43:05;;;;;;;3.85;1.90;;;23.30;94.40;;;;;;5116511;28;20020;-85
2021/06/12 08:45:32;;;;;;;3.60;1.80;;;23.20;94.20;;;;;;5118085;28;20022;-85
2021/06/12 08:48:01;;;;;;;3.50;1.60;;;23.10;93.80;;;;;;5115747;28;20035;-85
2021/06/12 08:50:31;;;;;;;3.25;1.63;;;23.10;93.80;;;;;;5116411;28;20034;-85
2021/06/12 08:53:01;;;;;;;3.97;1.38;;;23.10;93.80;;;;;;5116347;28;20032;-85
2021/06/12 08:55:27;;;;;;;2.83;1.50;;;23.10;93.40;;;;;;5099756;28;20031;-84
2021/06/12 08:57:54;;;;;;;3.95;1.50;;;23.20;93.20;;;;;;5116259;28;20038;-85
2021/06/12 09:00:24;;;;;;;4.13;1.40;;;23.30;93.30;;;;;;5115862;28;20043;-85
2021/06/12 09:03:12;;;;;;;3.65;1.67;;;23.40;93.50;;;;;;5122939;28;20054;-84
2021/06/12 09:05:54;;;;;;;4.63;1.70;;;23.60;93.00;;;;;;5128070;27;20035;-86
2021/06/12 09:08:38;;;;;;;3.50;1.75;;;23.50;92.50;;;;;;5111604;28;20714;-85
2021/06/12 09:11:20;;;;;;;4.47;1.70;;;23.50;92.00;;;;;;5113945;28;20487;-85
2021/06/12 09:13:58;;;;;;;3.67;1.63;;;23.50;92.00;;;;;;5118089;27;20498;-85
2021/06/12 09:16:40;;;;;;;3.17;1.50;;;23.60;92.00;;;;;;5122490;27;20156;-86
2021/06/12 09:22:11;;;;;;;2.63;1.42;;;23.90;92.00;;;;;;5119804;27;20382;-85
2021/06/12 09:24:49;;;;;;;2.55;1.38;;;24.10;91.70;;;;;;5126965;27;20050;-85
2021/06/12 09:27:18;;;;;;;3.42;1.73;;;24.30;91.40;;;;;;5122451;27;20024;-84
2021/06/12 09:29:52;;;;;;;3.33;1.48;;;24.50;91.30;;;;;;5122790;27;20061;-86
2021/06/12 09:32:37;;;;;;;5.80;2.03;;;24.70;90.50;;;;;;5116555;27;20016;-87
2021/06/12 09:35:13;;;;;;;2.88;1.50;;;24.90;90.00;;;;;;5137102;27;20071;-85
2021/06/12 09:37:44;;;;;;;3.50;1.48;;;24.90;90.00;;;;;;5141203;27;20038;-86
2021/06/12 09:40:17;;;;;;;3.80;1.60;;;24.90;89.80;;;;;;5124124;27;20028;-88
2021/06/12 09:43:27;;;;;;;4.25;1.80;;;25.00;90.10;;;;;;5125685;27;20027;-87
2021/06/12 09:46:08;;;;;;;;;;;;;;;;;;;;;
2021/06/12 09:48:58;;;;;;;3.25;1.50;;;24.90;90.10;;;;;;5122531;27;20045;-88
2021/06/12 09:51:35;;;;;;;;;;;;;;;;;;;;;
2021/06/12 09:54:37;;;;;;;6.53;2.08;;;25.10;90.10;;;;;;5134895;27;20023;-87
2021/06/12 09:57:03;;;;;;;5.43;1.63;;;25.00;89.70;;;;;;5108958;28;20035;-86
2021/06/12 09:59:48;;;;;;;3.38;1.55;;;24.90;89.80;;;;;;5113508;28;20475;-87
2021/06/12 10:02:38;;;;;;;3.55;1.50;;;24.90;89.60;;;;;;5118344;28;20138;-87
2021/06/12 10:05:05;;;;;;;5.18;1.60;;;25.00;89.70;;;;;;5018460;28;20049;-87
2021/06/12 10:07:37;;;;;;;3.33;1.58;;;25.20;89.50;;;;;;5102291;27;20087;-87
2021/06/12 10:10:13;;;;;;;2.95;1.48;;;25.40;88.60;;;;;;5125878;27;20019;-87
2021/06/12 10:12:40;;;;;;;3.47;1.48;;;25.50;88.00;;;;;;5122190;27;20113;-86
2021/06/12 10:15:15;;;;;;;3.97;1.40;;;25.40;87.90;;;;;;5118558;27;20072;-86
2021/06/12 10:17:51;;;;;;;3.50;1.40;;;25.30;88.10;;;;;;5116089;27;20069;-88
2021/06/12 10:20:25;;;;;;;3.33;1.75;;;25.20;87.80;;;;;;5122193;27;20043;-90
2021/06/12 10:22:53;;;;;;;4.10;1.90;;;25.00;87.40;;;;;;5119545;27;20083;-87
2021/06/12 10:25:23;;;;;;;5.30;1.77;;;24.80;87.00;;;;;;5122668;27;20019;-85
2021/06/12 10:28:10;;;;;;;4.57;1.70;;;24.80;87.70;;;;;;5120387;27;20036;-84
2021/06/12 10:30:38;;;;;;;4.45;1.67;;;25.10;87.70;;;;;;5119543;27;20031;-86
2021/06/12 10:33:11;;;;;;;4.22;1.58;;;25.30;86.30;;;;;;5119092;27;20043;-88
2021/06/12 10:36:03;;;;;;;4.10;1.48;;;25.50;86.30;;;;;;5125385;27;20028;-89
2021/06/12 10:38:57;;;;;;;;;;;;;;;;;;;;;
2021/06/12 10:41:33;;;;;;;3.00;1.10;;;26.20;85.30;;;;;;5123700;27;20271;-89
2021/06/12 10:44:43;;;;;;;;;;;;;;;;;;;;;
2021/06/12 10:47:10;;;;;;;2.80;1.38;;;26.90;84.30;;;;;;5100900;28;20035;-85
2021/06/12 10:49:37;;;;;;;3.92;1.38;;;27.20;83.40;;;;;;5114980;27;20020;-84
2021/06/12 10:52:17;;;;;;;3.33;1.52;;;27.60;82.30;;;;;;5117121;27;20078;-89
2021/06/12 10:54:43;;;;;;;3.08;1.40;;;27.80;80.50;;;;;;5153298;22;20068;-86
2021/06/12 10:57:20;;;;;;;2.88;1.50;;;28.00;79.50;;;;;;5051778;22;20061;-92
2021/06/12 10:59:47;;;;;;;5.78;1.35;;;28.30;78.50;;;;;;5019244;28;20043;-88
2021/06/12 11:04:56;;;;;;;4.28;1.50;;;28.70;75.80;;;;;;5032483;28;20037;-89
2021/06/12 11:07:41;;;;;;;4.50;1.40;;;28.70;75.00;;;;;;5030320;28;20060;-89
2021/06/12 11:10:13;;;;;;;3.72;1.50;;;29.10;74.50;;;;;;5028261;28;20017;-91
2021/06/12 11:12:57;;;;;;;5.53;1.50;;;29.10;74.00;;;;;;5039559;28;20033;-89
2021/06/12 11:15:22;;;;;;;5.95;1.50;;;29.10;73.00;;;;;;5030795;28;20022;-89
2021/06/12 11:18:15;;;;;;;2.90;1.30;;;29.00;72.20;;;;;;5032863;28;20029;-89
2021/06/12 11:20:46;;;;;;;;;;;28.60;72.60;;;;;;5029754;28;20427;-90
2021/06/12 11:23:14;;;;;;;2.78;1.33;;;28.20;73.20;;;;;;5030318;28;20343;-89
2021/06/12 11:25:44;;;;;;;3.53;1.10;;;27.90;74.20;;;;;;5030645;28;20036;-89
2021/06/12 11:29:15;;;;;;;4.07;1.63;;;27.60;73.90;;;;;;5029400;28;20399;-91
2021/06/12 11:31:41;;;;;;;3.80;1.50;;;27.40;74.10;;;;;;5007447;28;20041;-88
2021/06/12 11:34:18;;;;;;;5.47;1.65;;;27.40;74.50;;;;;;5027987;28;20032;-89
2021/06/12 11:36:47;;;;;;;4.22;1.70;;;27.40;74.00;;;;;;5026323;28;20068;-88
2021/06/12 11:39:13;;;;;;;5.95;1.30;;;27.40;74.00;;;;;;5028799;28;20112;-90
2021/06/12 11:41:39;;;;;;;4.68;1.52;;;27.30;73.80;;;;;;5029362;28;20093;-89
2021/06/12 11:44:05;;;;;;;2.70;1.08;;;27.10;73.80;;;;;;5043230;28;20025;-91
2021/06/12 11:46:42;;;;;;;4.05;1.52;;;27.10;73.90;;;;;;5030411;28;20079;-90
2021/06/12 11:49:10;;;;;;;5.35;1.40;;;27.80;72.90;;;;;;5031991;28;20556;-91
2021/06/12 11:51:40;;;;;;;3.75;1.55;;;28.10;71.40;;;;;;5028039;28;20116;-92
2021/06/12 11:54:43;;;;;;;2.92;1.17;;;28.50;70.90;;;;;;5031479;28;20025;-94
2021/06/12 11:57:09;;;;;;;3.83;1.40;;;29.00;69.90;;;;;;5047331;28;20045;-91
2021/06/12 11:59:38;;;;;;;3.63;1.30;;;29.50;69.30;;;;;;5031376;28;20037;-93
2021/06/12 12:02:23;;;;;;;2.38;1.20;;;29.40;68.00;;;;;;5043739;28;20022;-94
2021/06/12 12:05:37;;;;;;;4.18;1.13;;;29.00;68.60;;;;;;5038840;28;20029;-96
2021/06/12 12:08:07;;;;;;;4.70;1.58;;;28.90;69.00;;;;;;5027855;28;20049;-90
2021/06/12 12:11:06;;;;;;;3.35;1.40;;;28.40;69.30;;;;;;5033747;28;20479;-96
2021/06/12 12:13:41;;;;;;;3.05;1.20;;;28.20;68.90;;;;;;5025617;28;20204;-93
2021/06/12 12:19:32;;;;;;;5.53;1.73;;;28.20;68.20;;;;;;4992414;28;20069;-92
2021/06/12 12:22:02;;;;;;;3.42;1.38;;;28.30;67.80;;;;;;5022665;28;20099;-94
2021/06/12 12:24:31;;;;;;;3.78;1.48;;;28.10;68.10;;;;;;5021827;28;20021;-89
2021/06/12 12:27:04;;;;;;;4.45;1.58;;;27.80;68.50;;;;;;5026963;28;20046;-90
2021/06/12 12:29:32;;;;;;;4.55;1.52;;;27.60;68.90;;;;;;5021895;28;20104;-90
2021/06/12 12:32:00;;;;;;;5.10;1.23;;;28.00;68.90;;;;;;5023011;28;20036;-89
2021/06/12 12:34:32;;;;;;;4.20;1.58;;;28.40;68.20;;;;;;5024780;28;20014;-88
2021/06/12 12:36:58;;;;;;;5.28;1.50;;;28.90;67.70;;;;;;5033404;28;20060;-90
2021/06/12 12:39:34;;;;;;;4.53;1.33;;;29.50;66.90;;;;;;5012071;28;20017;-89
2021/06/12 12:42:00;;;;;;;3.83;1.48;;;29.90;65.90;;;;;;5017549;28;20026;-90
2021/06/12 12:44:34;;;;;;;2.88;1.35;;;30.00;64.70;;;;;;5023908;28;20020;-91
2021/06/12 12:58:10;;;;;;;2.20;0.93;;;30.90;62.50;;;;;;3358095;26;20063;-87
2021/06/12 13:00:39;;;;;;;3.67;1.23;;;31.00;62.00;;;;;;5048122;28;20021;-87
2021/06/12 13:03:10;;;;;;;3.97;1.30;;;30.60;61.60;;;;;;5042985;28;20339;-86
2021/06/12 13:08:48;;;;;;;2.33;1.20;;;30.30;61.00;;;;;;5012877;28;20050;-87
2021/06/12 13:11:25;;;;;;;3.97;1.25;;;30.40;61.40;;;;;;5074426;28;20033;-85
2021/06/12 13:14:08;;;;;;;4.00;1.27;;;30.60;61.30;;;;;;5072847;28;20021;-87
2021/06/12 13:16:34;;;;;;;;;;;31.00;60.20;;;;;;5080401;28;20051;-84
2021/06/12 13:19:15;;;;;;;3.35;0.98;;;30.90;58.70;;;;;;5059117;28;19927;-85
2021/06/12 13:25:05;;;;;;;2.60;1.08;;;29.30;58.50;;;;;;5053434;28;20041;-85
2021/06/12 13:28:16;;;;;;;6.47;1.38;;;29.10;59.30;;;;;;5060821;28;20028;-86
2021/06/12 13:30:49;;;;;;;;;;;29.30;58.80;;;;;;5002122;28;20045;-85
2021/06/12 13:33:25;;;;;;;3.85;1.27;;;29.20;59.50;;;;;;5055287;28;19912;-84
2021/06/12 13:36:09;;;;;;;3.75;1.20;;;29.30;57.40;;;;;;5059704;28;20374;-85
2021/06/12 13:38:41;;;;;;;4.10;1.23;;;29.40;58.00;;;;;;5055398;28;20493;-86
2021/06/12 13:41:14;;;;;;;4.82;1.20;;;29.80;57.70;;;;;;5056000;28;20407;-89